首页
METAR-TAF:

METAR-TAF

机场 :

迈克蒂亚西蒙·玻利瓦尔国际机场

卡拉卡斯, 委内瑞拉

纬度: 10-36N, 经度: 066-59W, 海拔: 43米

当前天气观测

该预报发布于1小时和14分钟前的22:00 UTC
风速4节,风向
温度 28°C
湿度 74%
气压 1004 hPa
能見度: 9000
多云层高于1600英尺
小毛毛雨

METAR: SVMI 232200Z 09004KT 9000 -DZ BKN016 28/23 Q1004

时间: 19:14 (23:14 UTC)

预报

该预报发布于7小时和14分钟前的16:00 UTC
预报有效从23日的 18点(UTC)到 24日的 18点(UTC)
风速12节,风向
能见度10公里或以上
少量云层高于1600英尺
成为
从 23日的 18点(UTC)到 23日的 22点(UTC)
风速9节,风向
能見度: 9000
散云层高于1600英尺
散云层高于9000英尺

TAF: SVMI 231600Z 2318/2418 09012KT 9999 FEW016 TX34/19Z TN24/09Z BECMG 2318/2322 09009KT 9000 SCT016 SCT090

超过4000个机场的气象观测和天气预报(METAR&TAF报告)。

可查询的气象台以黄色和红色小点在地图上表示。

将鼠标移到小点上方,可查看气象台名称。

然后点击查看天气观测和预报。

如需切换地图:点击带黑十字的绿色按钮放大地图;点击带横线的绿色按钮缩小地图;或者点击绿色箭头查看邻近地区的地图。


METAR-TAF: